sensor_id;sensor_type;location;lat;lon;timestamp;pressure;altitude;pressure_sealevel;temperature;humidity
44148;BME280;29810;55.848;37.368;2022-07-23T00:01:33;99109.13;;;17.75;68.32
44148;BME280;29810;55.848;37.368;2022-07-23T00:04:35;99111.88;;;17.74;68.34
44148;BME280;29810;55.848;37.368;2022-07-23T00:07:37;99116.37;;;17.71;68.66
44148;BME280;29810;55.848;37.368;2022-07-23T00:10:38;99083.47;;;17.51;68.86
44148;BME280;29810;55.848;37.368;2022-07-23T00:13:40;99113.09;;;17.68;68.93
44148;BME280;29810;55.848;37.368;2022-07-23T00:16:42;99115.31;;;17.61;69.26
44148;BME280;29810;55.848;37.368;2022-07-23T00:19:43;99119.13;;;17.57;69.47
44148;BME280;29810;55.848;37.368;2022-07-23T00:22:55;99116.81;;;17.52;69.66
44148;BME280;29810;55.848;37.368;2022-07-23T00:25:56;99116.87;;;17.51;70.13
44148;BME280;29810;55.848;37.368;2022-07-23T00:28:58;99123.13;;;17.50;70.00
44148;BME280;29810;55.848;37.368;2022-07-23T00:32:00;99113.94;;;17.43;70.07
44148;BME280;29810;55.848;37.368;2022-07-23T00:35:01;99127.62;;;17.48;70.14
44148;BME280;29810;55.848;37.368;2022-07-23T00:38:04;99101.59;;;17.30;70.15
44148;BME280;29810;55.848;37.368;2022-07-23T00:41:06;99105.81;;;17.33;70.19
44148;BME280;29810;55.848;37.368;2022-07-23T00:44:15;99121.84;;;17.43;70.45
44148;BME280;29810;55.848;37.368;2022-07-23T00:47:17;99126.47;;;17.39;70.79
44148;BME280;29810;55.848;37.368;2022-07-23T00:50:18;99093.66;;;17.17;70.77
44148;BME280;29810;55.848;37.368;2022-07-23T00:53:20;99122.44;;;17.33;70.90
44148;BME280;29810;55.848;37.368;2022-07-23T00:56:22;99129.41;;;17.34;70.93
44148;BME280;29810;55.848;37.368;2022-07-23T00:59:24;99125.91;;;17.34;71.07
44148;BME280;29810;55.848;37.368;2022-07-23T01:02:26;99134.69;;;17.34;71.10
44148;BME280;29810;55.848;37.368;2022-07-23T01:05:28;99131.94;;;17.36;71.10
44148;BME280;29810;55.848;37.368;2022-07-23T01:08:29;99124.53;;;17.28;71.46
44148;BME280;29810;55.848;37.368;2022-07-23T01:11:33;99125.59;;;17.26;71.52
44148;BME280;29810;55.848;37.368;2022-07-23T01:14:35;99134.66;;;17.21;71.91
44148;BME280;29810;55.848;37.368;2022-07-23T01:17:37;99130.41;;;17.19;71.97
44148;BME280;29810;55.848;37.368;2022-07-23T01:20:38;99117.84;;;17.10;72.06
44148;BME280;29810;55.848;37.368;2022-07-23T01:23:41;99120.72;;;17.19;72.04
44148;BME280;29810;55.848;37.368;2022-07-23T01:26:44;99127.25;;;17.14;72.27
44148;BME280;29810;55.848;37.368;2022-07-23T01:29:46;99136.72;;;17.16;72.61
44148;BME280;29810;55.848;37.368;2022-07-23T01:32:48;99117.16;;;17.20;72.30
44148;BME280;29810;55.848;37.368;2022-07-23T01:35:51;99126.28;;;17.42;71.66
44148;BME280;29810;55.848;37.368;2022-07-23T01:38:55;99123.25;;;17.74;70.61
44148;BME280;29810;55.848;37.368;2022-07-23T01:41:57;99126.34;;;17.94;69.51
44148;BME280;29810;55.848;37.368;2022-07-23T01:45:00;99107.97;;;17.92;69.38
44148;BME280;29810;55.848;37.368;2022-07-23T01:48:05;99119.31;;;18.44;68.16
44148;BME280;29810;55.848;37.368;2022-07-23T01:51:08;99056.34;;;18.64;65.83
44148;BME280;29810;55.848;37.368;2022-07-23T01:54:11;99118.34;;;19.55;63.93
44148;BME280;29810;55.848;37.368;2022-07-23T01:57:13;99113.72;;;19.93;62.00
44148;BME280;29810;55.848;37.368;2022-07-23T02:00:15;99110.97;;;20.17;60.82
44148;BME280;29810;55.848;37.368;2022-07-23T02:03:19;99115.16;;;20.65;59.30
44148;BME280;29810;55.848;37.368;2022-07-23T02:06:21;99105.47;;;20.98;58.03
44148;BME280;29810;55.848;37.368;2022-07-23T02:09:24;99101.06;;;21.83;56.00
44148;BME280;29810;55.848;37.368;2022-07-23T02:12:26;99096.22;;;22.29;53.86
44148;BME280;29810;55.848;37.368;2022-07-23T02:15:28;99096.59;;;22.45;52.96
44148;BME280;29810;55.848;37.368;2022-07-23T02:18:29;99096.59;;;22.55;52.79
44148;BME280;29810;55.848;37.368;2022-07-23T02:21:31;99088.69;;;22.94;51.54
44148;BME280;29810;55.848;37.368;2022-07-23T02:24:32;99103.81;;;23.04;51.03
44148;BME280;29810;55.848;37.368;2022-07-23T02:27:35;99104.69;;;23.14;50.92
44148;BME280;29810;55.848;37.368;2022-07-23T02:30:38;99105.66;;;23.42;50.05
44148;BME280;29810;55.848;37.368;2022-07-23T02:33:41;99101.13;;;23.72;49.17
44148;BME280;29810;55.848;37.368;2022-07-23T02:36:42;99100.16;;;24.21;47.88
44148;BME280;29810;55.848;37.368;2022-07-23T02:39:44;99106.44;;;24.29;47.47
44148;BME280;29810;55.848;37.368;2022-07-23T02:42:47;99100.28;;;22.93;50.80
44148;BME280;29810;55.848;37.368;2022-07-23T02:45:48;99110.63;;;21.32;55.50
44148;BME280;29810;55.848;37.368;2022-07-23T02:48:52;99118.53;;;20.22;59.25
44148;BME280;29810;55.848;37.368;2022-07-23T02:51:53;99108.63;;;19.67;61.47
44148;BME280;29810;55.848;37.368;2022-07-23T02:54:55;99118.22;;;19.57;62.32
44148;BME280;29810;55.848;37.368;2022-07-23T02:57:57;99117.69;;;19.40;63.24
44148;BME280;29810;55.848;37.368;2022-07-23T03:00:58;99120.72;;;20.28;61.52
44148;BME280;29810;55.848;37.368;2022-07-23T03:04:00;99079.31;;;22.61;53.78
44148;BME280;29810;55.848;37.368;2022-07-23T03:07:02;99093.59;;;25.25;47.33
44148;BME280;29810;55.848;37.368;2022-07-23T03:10:04;99091.00;;;27.06;42.62
44148;BME280;29810;55.848;37.368;2022-07-23T03:13:05;99089.66;;;27.10;41.68
44148;BME280;29810;55.848;37.368;2022-07-23T03:16:07;99080.97;;;27.49;40.71
44148;BME280;29810;55.848;37.368;2022-07-23T03:19:10;99087.06;;;28.07;39.46
44148;BME280;29810;55.848;37.368;2022-07-23T03:22:12;99090.53;;;28.56;38.31
44148;BME280;29810;55.848;37.368;2022-07-23T03:25:14;99098.00;;;27.81;39.82
44148;BME280;29810;55.848;37.368;2022-07-23T03:28:16;99082.38;;;28.81;37.81
44148;BME280;29810;55.848;37.368;2022-07-23T03:31:19;99089.44;;;29.28;37.18
44148;BME280;29810;55.848;37.368;2022-07-23T03:34:21;99080.25;;;30.50;35.15
44148;BME280;29810;55.848;37.368;2022-07-23T03:37:23;99058.72;;;31.09;33.57
44148;BME280;29810;55.848;37.368;2022-07-23T03:40:25;99084.66;;;31.66;32.76
44148;BME280;29810;55.848;37.368;2022-07-23T03:43:26;99084.66;;;32.01;32.19
44148;BME280;29810;55.848;37.368;2022-07-23T03:46:28;99071.94;;;32.17;31.48
44148;BME280;29810;55.848;37.368;2022-07-23T03:49:30;99091.19;;;32.62;31.09
44148;BME280;29810;55.848;37.368;2022-07-23T03:52:32;99083.41;;;33.21;30.18
44148;BME280;29810;55.848;37.368;2022-07-23T03:55:33;99059.12;;;33.28;29.51
44148;BME280;29810;55.848;37.368;2022-07-23T03:58:35;99079.63;;;32.75;30.48
44148;BME280;29810;55.848;37.368;2022-07-23T04:01:36;99094.09;;;32.61;30.71
44148;BME280;29810;55.848;37.368;2022-07-23T04:04:38;99086.34;;;33.40;29.77
44148;BME280;29810;55.848;37.368;2022-07-23T04:07:40;99079.16;;;34.06;28.62
44148;BME280;29810;55.848;37.368;2022-07-23T04:10:42;99093.56;;;33.86;28.96
44148;BME280;29810;55.848;37.368;2022-07-23T04:13:45;99095.09;;;33.48;29.63
44148;BME280;29810;55.848;37.368;2022-07-23T04:16:47;99087.16;;;33.80;29.20
44148;BME280;29810;55.848;37.368;2022-07-23T04:19:48;99090.44;;;34.03;28.91
44148;BME280;29810;55.848;37.368;2022-07-23T04:22:50;99088.81;;;34.92;27.69
44148;BME280;29810;55.848;37.368;2022-07-23T04:25:52;99086.09;;;35.93;26.49
44148;BME280;29810;55.848;37.368;2022-07-23T04:28:54;99070.84;;;36.48;25.80
44148;BME280;29810;55.848;37.368;2022-07-23T04:31:55;99059.44;;;36.70;25.41
44148;BME280;29810;55.848;37.368;2022-07-23T04:34:57;99094.78;;;37.12;25.13
44148;BME280;29810;55.848;37.368;2022-07-23T04:37:59;99094.84;;;37.48;24.65
44148;BME280;29810;55.848;37.368;2022-07-23T04:41:01;99103.22;;;36.61;25.74
44148;BME280;29810;55.848;37.368;2022-07-23T04:44:03;99100.00;;;37.25;25.02
44148;BME280;29810;55.848;37.368;2022-07-23T04:47:05;99101.44;;;37.99;24.31
44148;BME280;29810;55.848;37.368;2022-07-23T04:50:08;99101.19;;;38.13;24.08
44148;BME280;29810;55.848;37.368;2022-07-23T04:53:11;99100.25;;;38.88;23.34
44148;BME280;29810;55.848;37.368;2022-07-23T04:56:13;99092.72;;;37.97;23.95
44148;BME280;29810;55.848;37.368;2022-07-23T04:59:14;99102.81;;;37.19;24.97
44148;BME280;29810;55.848;37.368;2022-07-23T05:02:16;99084.19;;;37.70;24.56
44148;BME280;29810;55.848;37.368;2022-07-23T05:05:18;99085.50;;;37.55;24.75
44148;BME280;29810;55.848;37.368;2022-07-23T05:08:20;99092.25;;;37.88;24.49
44148;BME280;29810;55.848;37.368;2022-07-23T05:11:22;99094.47;;;38.85;23.45
44148;BME280;29810;55.848;37.368;2022-07-23T05:14:23;99069.22;;;38.32;23.13
44148;BME280;29810;55.848;37.368;2022-07-23T05:17:25;99064.25;;;38.86;22.83
44148;BME280;29810;55.848;37.368;2022-07-23T05:20:27;99042.97;;;38.54;22.73
44148;BME280;29810;55.848;37.368;2022-07-23T05:23:29;99090.16;;;38.31;23.34
44148;BME280;29810;55.848;37.368;2022-07-23T05:26:31;99086.59;;;38.42;23.34
44148;BME280;29810;55.848;37.368;2022-07-23T05:29:33;99092.66;;;38.33;23.55
44148;BME280;29810;55.848;37.368;2022-07-23T05:32:34;99077.25;;;39.30;22.70
44148;BME280;29810;55.848;37.368;2022-07-23T05:35:39;99087.44;;;39.74;21.87
44148;BME280;29810;55.848;37.368;2022-07-23T05:38:42;99070.72;;;38.39;22.93
44148;BME280;29810;55.848;37.368;2022-07-23T05:41:43;99091.19;;;37.89;23.43
44148;BME280;29810;55.848;37.368;2022-07-23T05:44:45;99078.09;;;37.86;23.54
44148;BME280;29810;55.848;37.368;2022-07-23T05:47:48;99077.28;;;38.15;22.96
44148;BME280;29810;55.848;37.368;2022-07-23T05:50:51;99083.53;;;38.39;23.07
44148;BME280;29810;55.848;37.368;2022-07-23T05:53:55;99081.50;;;39.09;21.64
44148;BME280;29810;55.848;37.368;2022-07-23T05:56:57;99079.63;;;38.35;22.21
44148;BME280;29810;55.848;37.368;2022-07-23T05:59:58;99087.50;;;37.72;23.40
44148;BME280;29810;55.848;37.368;2022-07-23T06:03:01;99037.25;;;37.27;23.91
44148;BME280;29810;55.848;37.368;2022-07-23T06:06:04;99066.44;;;38.03;23.22
44148;BME280;29810;55.848;37.368;2022-07-23T06:09:06;99069.31;;;37.84;23.10
44148;BME280;29810;55.848;37.368;2022-07-23T06:12:09;99082.56;;;37.57;23.58
44148;BME280;29810;55.848;37.368;2022-07-23T06:15:10;99074.25;;;36.25;25.17
44148;BME280;29810;55.848;37.368;2022-07-23T06:18:12;99086.81;;;35.38;26.44
44148;BME280;29810;55.848;37.368;2022-07-23T06:21:14;99078.91;;;35.05;27.22
44148;BME280;29810;55.848;37.368;2022-07-23T06:24:16;99069.97;;;35.04;27.66
44148;BME280;29810;55.848;37.368;2022-07-23T06:27:18;99047.06;;;34.29;28.53
44148;BME280;29810;55.848;37.368;2022-07-23T06:30:19;99058.47;;;34.38;28.26
44148;BME280;29810;55.848;37.368;2022-07-23T06:33:21;99078.25;;;34.25;28.61
44148;BME280;29810;55.848;37.368;2022-07-23T06:36:22;99095.75;;;32.68;30.76
44148;BME280;29810;55.848;37.368;2022-07-23T06:39:24;99093.50;;;31.10;33.42
44148;BME280;29810;55.848;37.368;2022-07-23T06:42:26;99094.19;;;29.56;36.21
44148;BME280;29810;55.848;37.368;2022-07-23T06:45:30;99098.94;;;27.97;39.54
44148;BME280;29810;55.848;37.368;2022-07-23T06:48:34;99101.53;;;27.24;41.12
44148;BME280;29810;55.848;37.368;2022-07-23T06:51:36;99112.22;;;27.16;41.77
44148;BME280;29810;55.848;37.368;2022-07-23T06:54:38;99107.34;;;26.35;43.64
44148;BME280;29810;55.848;37.368;2022-07-23T06:57:39;99105.38;;;26.37;43.73
44148;BME280;29810;55.848;37.368;2022-07-23T07:00:41;99103.34;;;26.39;43.66
44148;BME280;29810;55.848;37.368;2022-07-23T07:03:43;99104.06;;;25.89;45.06
44148;BME280;29810;55.848;37.368;2022-07-23T07:06:44;99103.47;;;26.03;44.83
44148;BME280;29810;55.848;37.368;2022-07-23T07:09:46;99078.25;;;25.98;44.72
44148;BME280;29810;55.848;37.368;2022-07-23T07:12:48;99106.97;;;26.22;44.30
44148;BME280;29810;55.848;37.368;2022-07-23T07:15:49;99101.81;;;26.28;44.58
44148;BME280;29810;55.848;37.368;2022-07-23T07:18:51;99102.47;;;26.31;43.70
44148;BME280;29810;55.848;37.368;2022-07-23T07:21:52;99103.00;;;26.34;44.24
44148;BME280;29810;55.848;37.368;2022-07-23T07:24:54;99104.41;;;26.63;43.76
44148;BME280;29810;55.848;37.368;2022-07-23T07:27:55;99099.50;;;26.76;42.90
44148;BME280;29810;55.848;37.368;2022-07-23T07:30:57;99101.66;;;26.38;43.69
44148;BME280;29810;55.848;37.368;2022-07-23T07:33:59;99105.66;;;26.34;43.35
44148;BME280;29810;55.848;37.368;2022-07-23T07:37:00;99102.91;;;25.91;44.55
44148;BME280;29810;55.848;37.368;2022-07-23T07:40:02;99088.44;;;26.20;43.15
44148;BME280;29810;55.848;37.368;2022-07-23T07:43:04;99090.34;;;26.44;42.52
44148;BME280;29810;55.848;37.368;2022-07-23T07:46:06;99098.88;;;26.56;41.99
44148;BME280;29810;55.848;37.368;2022-07-23T07:49:11;99085.09;;;26.77;41.18
44148;BME280;29810;55.848;37.368;2022-07-23T07:52:12;99102.19;;;27.01;41.39
44148;BME280;29810;55.848;37.368;2022-07-23T07:55:14;99099.50;;;27.01;38.99
44148;BME280;29810;55.848;37.368;2022-07-23T07:58:15;99099.19;;;26.96;39.86
44148;BME280;29810;55.848;37.368;2022-07-23T08:01:17;99102.88;;;26.95;40.55
44148;BME280;29810;55.848;37.368;2022-07-23T08:04:21;99086.37;;;26.57;41.20
44148;BME280;29810;55.848;37.368;2022-07-23T08:07:22;99102.00;;;26.94;41.21
44148;BME280;29810;55.848;37.368;2022-07-23T08:10:25;99099.38;;;27.36;40.65
44148;BME280;29810;55.848;37.368;2022-07-23T08:13:27;99093.50;;;27.65;39.69
44148;BME280;29810;55.848;37.368;2022-07-23T08:16:29;99084.91;;;28.03;39.22
44148;BME280;29810;55.848;37.368;2022-07-23T08:19:30;99081.38;;;27.94;39.47
44148;BME280;29810;55.848;37.368;2022-07-23T08:22:53;99091.47;;;27.84;38.59
44148;BME280;29810;55.848;37.368;2022-07-23T08:25:54;99086.81;;;27.61;39.64
44148;BME280;29810;55.848;37.368;2022-07-23T08:28:58;99077.78;;;27.46;39.64
44148;BME280;29810;55.848;37.368;2022-07-23T08:31:59;99083.97;;;27.63;40.23
44148;BME280;29810;55.848;37.368;2022-07-23T08:35:01;99084.81;;;27.47;40.42
44148;BME280;29810;55.848;37.368;2022-07-23T08:38:06;99087.31;;;27.23;39.67
44148;BME280;29810;55.848;37.368;2022-07-23T08:41:09;99046.69;;;27.03;40.13
44148;BME280;29810;55.848;37.368;2022-07-23T08:44:11;99079.97;;;27.50;38.90
44148;BME280;29810;55.848;37.368;2022-07-23T08:47:14;99015.56;;;27.27;38.18
44148;BME280;29810;55.848;37.368;2022-07-23T08:50:16;99060.22;;;27.43;38.32
44148;BME280;29810;55.848;37.368;2022-07-23T08:53:20;99071.44;;;27.47;39.67
44148;BME280;29810;55.848;37.368;2022-07-23T08:56:21;99084.00;;;27.46;39.17
44148;BME280;29810;55.848;37.368;2022-07-23T08:59:23;99068.94;;;27.62;38.63
44148;BME280;29810;55.848;37.368;2022-07-23T09:02:24;99068.06;;;27.77;38.59
44148;BME280;29810;55.848;37.368;2022-07-23T09:05:27;99067.81;;;28.04;38.52
44148;BME280;29810;55.848;37.368;2022-07-23T09:11:37;99061.97;;;28.08;37.79
44148;BME280;29810;55.848;37.368;2022-07-23T09:14:41;99060.84;;;27.78;37.63
44148;BME280;29810;55.848;37.368;2022-07-23T09:17:43;99072.94;;;27.66;37.58
44148;BME280;29810;55.848;37.368;2022-07-23T09:20:45;99057.13;;;27.87;37.82
44148;BME280;29810;55.848;37.368;2022-07-23T09:23:59;99060.50;;;27.81;36.66
44148;BME280;29810;55.848;37.368;2022-07-23T09:27:01;99068.41;;;27.66;37.34
44148;BME280;29810;55.848;37.368;2022-07-23T09:30:05;99062.25;;;27.49;37.83
44148;BME280;29810;55.848;37.368;2022-07-23T09:33:11;99064.22;;;27.64;37.62
44148;BME280;29810;55.848;37.368;2022-07-23T09:36:13;99056.09;;;28.05;37.00
44148;BME280;29810;55.848;37.368;2022-07-23T09:39:16;99062.00;;;28.32;36.39
44148;BME280;29810;55.848;37.368;2022-07-23T09:42:25;99051.50;;;28.53;36.06
44148;BME280;29810;55.848;37.368;2022-07-23T09:45:26;99053.78;;;28.33;36.94
44148;BME280;29810;55.848;37.368;2022-07-23T09:48:28;99050.59;;;27.98;37.70
44148;BME280;29810;55.848;37.368;2022-07-23T09:51:29;99052.62;;;27.80;37.68
44148;BME280;29810;55.848;37.368;2022-07-23T09:54:39;99052.69;;;28.19;37.25
44148;BME280;29810;55.848;37.368;2022-07-23T09:57:41;99045.47;;;28.20;38.19
44148;BME280;29810;55.848;37.368;2022-07-23T10:00:48;99056.97;;;27.81;38.05
44148;BME280;29810;55.848;37.368;2022-07-23T10:03:50;99046.09;;;27.82;38.46
44148;BME280;29810;55.848;37.368;2022-07-23T10:06:55;99049.63;;;27.83;37.93
44148;BME280;29810;55.848;37.368;2022-07-23T10:10:03;99043.00;;;27.54;37.95
44148;BME280;29810;55.848;37.368;2022-07-23T10:13:09;99038.66;;;27.20;38.43
44148;BME280;29810;55.848;37.368;2022-07-23T10:16:27;99032.47;;;27.11;38.56
44148;BME280;29810;55.848;37.368;2022-07-23T10:19:29;99032.59;;;27.67;38.04
44148;BME280;29810;55.848;37.368;2022-07-23T10:22:34;99031.84;;;27.90;37.65
44148;BME280;29810;55.848;37.368;2022-07-23T10:29:20;99027.13;;;28.08;36.71
44148;BME280;29810;55.848;37.368;2022-07-23T10:36:23;99013.91;;;28.62;36.22
44148;BME280;29810;55.848;37.368;2022-07-23T10:39:29;99003.16;;;28.93;35.81
44148;BME280;29810;55.848;37.368;2022-07-23T10:42:33;98991.88;;;28.98;35.16
44148;BME280;29810;55.848;37.368;2022-07-23T10:45:36;98993.88;;;29.19;35.04
44148;BME280;29810;55.848;37.368;2022-07-23T10:48:38;98981.97;;;28.98;33.64
44148;BME280;29810;55.848;37.368;2022-07-23T10:52:19;98984.56;;;28.91;34.92
44148;BME280;29810;55.848;37.368;2022-07-23T10:55:38;98982.38;;;29.10;34.51
44148;BME280;29810;55.848;37.368;2022-07-23T10:58:49;98980.16;;;29.14;34.87
44148;BME280;29810;55.848;37.368;2022-07-23T11:01:51;98977.03;;;29.25;34.56
44148;BME280;29810;55.848;37.368;2022-07-23T11:04:53;98983.53;;;28.46;35.82
44148;BME280;29810;55.848;37.368;2022-07-23T11:14:07;98977.69;;;28.42;36.40
44148;BME280;29810;55.848;37.368;2022-07-23T11:17:19;98984.94;;;28.34;36.26
44148;BME280;29810;55.848;37.368;2022-07-23T11:20:23;98993.44;;;28.14;36.19
44148;BME280;29810;55.848;37.368;2022-07-23T11:27:00;98989.13;;;28.36;36.56
44148;BME280;29810;55.848;37.368;2022-07-23T11:30:02;98982.91;;;28.13;36.39
44148;BME280;29810;55.848;37.368;2022-07-23T11:36:08;98976.00;;;28.18;36.78
44148;BME280;29810;55.848;37.368;2022-07-23T11:39:10;98974.28;;;28.49;36.52
44148;BME280;29810;55.848;37.368;2022-07-23T11:42:17;98972.47;;;28.72;34.93
44148;BME280;29810;55.848;37.368;2022-07-23T11:45:21;98971.13;;;28.91;34.25
44148;BME280;29810;55.848;37.368;2022-07-23T11:48:28;98969.06;;;28.79;34.35
44148;BME280;29810;55.848;37.368;2022-07-23T11:51:30;98971.31;;;28.90;34.89
44148;BME280;29810;55.848;37.368;2022-07-23T11:54:34;98963.94;;;28.46;35.58
44148;BME280;29810;55.848;37.368;2022-07-23T11:57:38;98971.53;;;28.65;34.98
44148;BME280;29810;55.848;37.368;2022-07-23T12:00:41;98970.00;;;28.63;34.93
44148;BME280;29810;55.848;37.368;2022-07-23T12:03:50;98956.56;;;28.71;34.73
44148;BME280;29810;55.848;37.368;2022-07-23T12:06:52;98951.53;;;28.91;34.70
44148;BME280;29810;55.848;37.368;2022-07-23T12:09:55;98936.66;;;29.03;34.30
44148;BME280;29810;55.848;37.368;2022-07-23T12:13:00;98924.63;;;29.14;33.94
44148;BME280;29810;55.848;37.368;2022-07-23T12:16:02;98939.56;;;29.47;33.74
44148;BME280;29810;55.848;37.368;2022-07-23T12:19:05;98937.59;;;29.11;34.84
44148;BME280;29810;55.848;37.368;2022-07-23T12:22:07;98933.28;;;28.63;35.81
44148;BME280;29810;55.848;37.368;2022-07-23T12:25:14;98938.62;;;28.48;36.39
44148;BME280;29810;55.848;37.368;2022-07-23T12:31:25;98936.47;;;28.67;35.78
44148;BME280;29810;55.848;37.368;2022-07-23T12:34:27;98927.94;;;28.63;35.35
44148;BME280;29810;55.848;37.368;2022-07-23T12:37:35;98925.31;;;28.08;36.98
44148;BME280;29810;55.848;37.368;2022-07-23T12:43:49;98927.31;;;27.75;36.80
44148;BME280;29810;55.848;37.368;2022-07-23T12:46:52;98921.47;;;27.71;36.81
44148;BME280;29810;55.848;37.368;2022-07-23T12:49:53;98917.28;;;28.08;36.64
44148;BME280;29810;55.848;37.368;2022-07-23T12:53:02;98914.31;;;28.03;36.70
44148;BME280;29810;55.848;37.368;2022-07-23T12:56:10;98914.66;;;28.23;36.70
44148;BME280;29810;55.848;37.368;2022-07-23T12:59:16;98918.13;;;28.32;35.82
44148;BME280;29810;55.848;37.368;2022-07-23T13:02:17;98920.84;;;28.24;35.88
44148;BME280;29810;55.848;37.368;2022-07-23T13:05:19;98858.97;;;28.34;35.22
44148;BME280;29810;55.848;37.368;2022-07-23T13:08:21;98909.72;;;28.97;34.65
44148;BME280;29810;55.848;37.368;2022-07-23T13:11:23;98902.44;;;29.05;34.13
44148;BME280;29810;55.848;37.368;2022-07-23T13:14:25;98894.28;;;29.14;33.78
44148;BME280;29810;55.848;37.368;2022-07-23T13:17:27;98903.91;;;29.08;33.85
44148;BME280;29810;55.848;37.368;2022-07-23T13:20:29;98891.88;;;29.19;33.56
44148;BME280;29810;55.848;37.368;2022-07-23T13:23:32;98891.91;;;29.49;32.74
44148;BME280;29810;55.848;37.368;2022-07-23T13:26:34;98895.50;;;29.56;32.97
44148;BME280;29810;55.848;37.368;2022-07-23T13:29:35;98891.44;;;29.60;32.62
44148;BME280;29810;55.848;37.368;2022-07-23T13:32:37;98889.31;;;29.55;32.05
44148;BME280;29810;55.848;37.368;2022-07-23T13:35:39;98882.06;;;29.56;31.64
44148;BME280;29810;55.848;37.368;2022-07-23T13:38:40;98884.41;;;29.59;32.12
44148;BME280;29810;55.848;37.368;2022-07-23T13:41:42;98889.50;;;29.54;31.87
44148;BME280;29810;55.848;37.368;2022-07-23T13:44:43;98873.28;;;29.17;32.25
44148;BME280;29810;55.848;37.368;2022-07-23T13:47:45;98886.91;;;29.16;32.55
44148;BME280;29810;55.848;37.368;2022-07-23T13:50:48;98888.41;;;29.33;32.60
44148;BME280;29810;55.848;37.368;2022-07-23T13:53:50;98883.66;;;29.20;32.68
44148;BME280;29810;55.848;37.368;2022-07-23T13:56:52;98884.41;;;29.44;32.63
44148;BME280;29810;55.848;37.368;2022-07-23T13:59:53;98874.09;;;29.63;32.47
44148;BME280;29810;55.848;37.368;2022-07-23T14:02:55;98875.16;;;29.83;32.13
44148;BME280;29810;55.848;37.368;2022-07-23T14:05:56;98867.66;;;29.94;31.86
44148;BME280;29810;55.848;37.368;2022-07-23T14:08:58;98871.56;;;29.91;31.98
44148;BME280;29810;55.848;37.368;2022-07-23T14:12:00;98868.13;;;29.97;32.01
44148;BME280;29810;55.848;37.368;2022-07-23T14:15:03;98860.69;;;29.99;31.96
44148;BME280;29810;55.848;37.368;2022-07-23T14:18:05;98872.56;;;29.90;32.33
44148;BME280;29810;55.848;37.368;2022-07-23T14:21:06;98864.84;;;30.02;32.40
44148;BME280;29810;55.848;37.368;2022-07-23T14:24:08;98862.56;;;29.84;31.65
44148;BME280;29810;55.848;37.368;2022-07-23T14:27:09;98867.41;;;29.73;32.04
44148;BME280;29810;55.848;37.368;2022-07-23T14:30:12;98859.44;;;29.65;32.13
44148;BME280;29810;55.848;37.368;2022-07-23T14:33:16;98862.56;;;29.84;31.75
44148;BME280;29810;55.848;37.368;2022-07-23T14:36:18;98858.56;;;29.80;31.41
44148;BME280;29810;55.848;37.368;2022-07-23T14:39:19;98855.41;;;30.06;31.01
44148;BME280;29810;55.848;37.368;2022-07-23T14:42:21;98839.97;;;29.93;30.78
44148;BME280;29810;55.848;37.368;2022-07-23T14:45:22;98832.59;;;29.65;31.19
44148;BME280;29810;55.848;37.368;2022-07-23T14:48:24;98850.69;;;29.56;31.23
44148;BME280;29810;55.848;37.368;2022-07-23T14:51:25;98854.59;;;29.24;31.89
44148;BME280;29810;55.848;37.368;2022-07-23T14:54:28;98858.84;;;29.03;31.87
44148;BME280;29810;55.848;37.368;2022-07-23T14:57:29;98848.94;;;28.74;31.99
44148;BME280;29810;55.848;37.368;2022-07-23T15:00:31;98853.03;;;28.62;32.27
44148;BME280;29810;55.848;37.368;2022-07-23T15:03:33;98845.31;;;28.43;32.65
44148;BME280;29810;55.848;37.368;2022-07-23T15:06:35;98841.03;;;28.34;32.77
44148;BME280;29810;55.848;37.368;2022-07-23T15:09:36;98841.13;;;28.26;33.56
44148;BME280;29810;55.848;37.368;2022-07-23T15:12:38;98851.28;;;28.31;33.60
44148;BME280;29810;55.848;37.368;2022-07-23T15:15:40;98840.47;;;28.24;33.97
44148;BME280;29810;55.848;37.368;2022-07-23T15:18:41;98831.72;;;28.07;34.33
44148;BME280;29810;55.848;37.368;2022-07-23T15:21:43;98843.41;;;28.14;34.43
44148;BME280;29810;55.848;37.368;2022-07-23T15:24:45;98806.97;;;27.97;34.30
44148;BME280;29810;55.848;37.368;2022-07-23T15:27:46;98842.72;;;28.35;34.29
44148;BME280;29810;55.848;37.368;2022-07-23T15:30:50;98834.97;;;28.40;34.17
44148;BME280;29810;55.848;37.368;2022-07-23T15:33:52;98844.50;;;28.58;34.31
44148;BME280;29810;55.848;37.368;2022-07-23T15:36:54;98838.28;;;28.66;34.34
44148;BME280;29810;55.848;37.368;2022-07-23T15:39:55;98841.97;;;28.65;34.54
44148;BME280;29810;55.848;37.368;2022-07-23T15:42:57;98845.25;;;28.52;34.91
44148;BME280;29810;55.848;37.368;2022-07-23T15:45:58;98829.22;;;28.43;35.14
44148;BME280;29810;55.848;37.368;2022-07-23T15:49:00;98834.50;;;28.14;35.71
44148;BME280;29810;55.848;37.368;2022-07-23T15:52:02;98827.50;;;28.13;35.90
44148;BME280;29810;55.848;37.368;2022-07-23T15:55:04;98820.56;;;27.95;36.04
44148;BME280;29810;55.848;37.368;2022-07-23T15:58:06;98834.87;;;28.11;35.95
44148;BME280;29810;55.848;37.368;2022-07-23T16:01:08;98829.50;;;28.11;35.91
44148;BME280;29810;55.848;37.368;2022-07-23T16:04:10;98827.84;;;28.09;35.94
44148;BME280;29810;55.848;37.368;2022-07-23T16:07:12;98828.59;;;28.03;36.09
44148;BME280;29810;55.848;37.368;2022-07-23T16:10:14;98813.06;;;27.90;36.18
44148;BME280;29810;55.848;37.368;2022-07-23T16:13:15;98821.63;;;27.86;36.28
44148;BME280;29810;55.848;37.368;2022-07-23T16:16:17;98826.97;;;27.86;36.61
44148;BME280;29810;55.848;37.368;2022-07-23T16:19:18;98815.66;;;27.75;36.86
44148;BME280;29810;55.848;37.368;2022-07-23T16:22:20;98822.69;;;27.76;36.95
44148;BME280;29810;55.848;37.368;2022-07-23T16:25:22;98814.53;;;27.70;36.88